sensor_id;sensor_type;location;lat;lon;timestamp;temperature;humidity
26947;DHT22;14501;52.282;10.560;2023-07-29T00:01:09;17.30;99.90
26947;DHT22;14501;52.282;10.560;2023-07-29T00:03:34;17.40;99.90
26947;DHT22;14501;52.282;10.560;2023-07-29T00:06:00;17.40;99.90
26947;DHT22;14501;52.282;10.560;2023-07-29T00:08:25;17.40;99.90
26947;DHT22;14501;52.282;10.560;2023-07-29T00:10:51;17.30;99.90
26947;DHT22;14501;52.282;10.560;2023-07-29T00:13:17;17.30;99.90
26947;DHT22;14501;52.282;10.560;2023-07-29T00:15:43;17.20;99.90
26947;DHT22;14501;52.282;10.560;2023-07-29T00:18:08;17.30;99.90
26947;DHT22;14501;52.282;10.560;2023-07-29T00:20:34;17.30;99.90
26947;DHT22;14501;52.282;10.560;2023-07-29T00:22:59;17.30;99.90
26947;DHT22;14501;52.282;10.560;2023-07-29T00:25:26;17.40;99.90
26947;DHT22;14501;52.282;10.560;2023-07-29T00:27:54;17.40;99.90
26947;DHT22;14501;52.282;10.560;2023-07-29T00:30:19;17.40;99.90
26947;DHT22;14501;52.282;10.560;2023-07-29T00:32:45;17.40;99.90
26947;DHT22;14501;52.282;10.560;2023-07-29T00:35:10;17.50;99.90
26947;DHT22;14501;52.282;10.560;2023-07-29T00:37:36;16.70;99.90
26947;DHT22;14501;52.282;10.560;2023-07-29T00:40:04;17.30;99.90
26947;DHT22;14501;52.282;10.560;2023-07-29T00:42:30;17.40;99.90
26947;DHT22;14501;52.282;10.560;2023-07-29T00:44:56;17.40;99.90
26947;DHT22;14501;52.282;10.560;2023-07-29T00:47:21;17.40;99.90
26947;DHT22;14501;52.282;10.560;2023-07-29T00:49:47;17.50;99.90
26947;DHT22;14501;52.282;10.560;2023-07-29T00:54:39;17.60;99.90
26947;DHT22;14501;52.282;10.560;2023-07-29T00:57:08;17.50;99.90
26947;DHT22;14501;52.282;10.560;2023-07-29T00:59:36;17.60;99.90
26947;DHT22;14501;52.282;10.560;2023-07-29T01:02:02;17.60;99.90
26947;DHT22;14501;52.282;10.560;2023-07-29T01:04:28;17.60;99.90
26947;DHT22;14501;52.282;10.560;2023-07-29T01:07:02;17.60;99.90
26947;DHT22;14501;52.282;10.560;2023-07-29T01:12:24;17.50;99.90
26947;DHT22;14501;52.282;10.560;2023-07-29T01:17:52;17.40;99.90
26947;DHT22;14501;52.282;10.560;2023-07-29T01:20:20;17.40;99.90
26947;DHT22;14501;52.282;10.560;2023-07-29T01:22:46;17.40;99.90
26947;DHT22;14501;52.282;10.560;2023-07-29T01:25:15;17.40;99.90
26947;DHT22;14501;52.282;10.560;2023-07-29T01:27:43;17.30;99.90
26947;DHT22;14501;52.282;10.560;2023-07-29T01:30:09;17.30;99.90
26947;DHT22;14501;52.282;10.560;2023-07-29T01:32:53;17.30;99.90
26947;DHT22;14501;52.282;10.560;2023-07-29T01:35:33;17.20;99.90
26947;DHT22;14501;52.282;10.560;2023-07-29T01:38:13;17.30;99.90
26947;DHT22;14501;52.282;10.560;2023-07-29T01:40:40;17.30;99.90
26947;DHT22;14501;52.282;10.560;2023-07-29T01:43:06;17.30;99.90
26947;DHT22;14501;52.282;10.560;2023-07-29T01:45:35;17.20;99.90
26947;DHT22;14501;52.282;10.560;2023-07-29T01:48:07;17.20;99.90
26947;DHT22;14501;52.282;10.560;2023-07-29T01:50:33;17.10;99.90
26947;DHT22;14501;52.282;10.560;2023-07-29T01:52:59;17.10;99.90
26947;DHT22;14501;52.282;10.560;2023-07-29T01:55:25;17.10;99.90
26947;DHT22;14501;52.282;10.560;2023-07-29T01:57:50;17.00;99.90
26947;DHT22;14501;52.282;10.560;2023-07-29T02:00:19;17.10;99.90
26947;DHT22;14501;52.282;10.560;2023-07-29T02:02:45;17.00;99.90
26947;DHT22;14501;52.282;10.560;2023-07-29T02:05:10;17.00;99.90
26947;DHT22;14501;52.282;10.560;2023-07-29T02:07:36;17.00;99.90
26947;DHT22;14501;52.282;10.560;2023-07-29T02:10:02;16.90;99.90
26947;DHT22;14501;52.282;10.560;2023-07-29T02:12:27;16.90;99.90
26947;DHT22;14501;52.282;10.560;2023-07-29T02:14:53;16.90;99.90
26947;DHT22;14501;52.282;10.560;2023-07-29T02:17:18;16.90;99.90
26947;DHT22;14501;52.282;10.560;2023-07-29T02:19:44;16.90;99.90
26947;DHT22;14501;52.282;10.560;2023-07-29T02:22:12;16.90;99.90
26947;DHT22;14501;52.282;10.560;2023-07-29T02:24:38;16.80;99.90
26947;DHT22;14501;52.282;10.560;2023-07-29T02:27:04;16.80;99.90
26947;DHT22;14501;52.282;10.560;2023-07-29T02:29:29;16.80;99.90
26947;DHT22;14501;52.282;10.560;2023-07-29T02:31:55;16.80;99.90
26947;DHT22;14501;52.282;10.560;2023-07-29T02:34:21;16.80;99.90
26947;DHT22;14501;52.282;10.560;2023-07-29T02:36:47;16.70;99.90
26947;DHT22;14501;52.282;10.560;2023-07-29T02:39:12;16.70;99.90
26947;DHT22;14501;52.282;10.560;2023-07-29T02:41:38;16.70;99.90
26947;DHT22;14501;52.282;10.560;2023-07-29T02:44:05;16.70;99.90
26947;DHT22;14501;52.282;10.560;2023-07-29T02:46:30;16.70;99.90
26947;DHT22;14501;52.282;10.560;2023-07-29T02:48:56;16.60;99.90
26947;DHT22;14501;52.282;10.560;2023-07-29T02:51:21;16.60;99.90
26947;DHT22;14501;52.282;10.560;2023-07-29T02:53:47;16.60;99.90
26947;DHT22;14501;52.282;10.560;2023-07-29T02:56:13;16.60;99.90
26947;DHT22;14501;52.282;10.560;2023-07-29T02:58:39;16.60;99.90
26947;DHT22;14501;52.282;10.560;2023-07-29T03:01:05;16.60;99.90
26947;DHT22;14501;52.282;10.560;2023-07-29T03:03:31;16.60;99.90
26947;DHT22;14501;52.282;10.560;2023-07-29T03:06:02;16.60;99.90
26947;DHT22;14501;52.282;10.560;2023-07-29T03:08:28;16.60;99.90
26947;DHT22;14501;52.282;10.560;2023-07-29T03:10:55;16.70;99.90
26947;DHT22;14501;52.282;10.560;2023-07-29T03:13:20;16.70;99.90
26947;DHT22;14501;52.282;10.560;2023-07-29T03:15:46;16.90;99.90
26947;DHT22;14501;52.282;10.560;2023-07-29T03:18:12;16.90;99.90
26947;DHT22;14501;52.282;10.560;2023-07-29T03:20:37;17.00;99.90
26947;DHT22;14501;52.282;10.560;2023-07-29T03:23:03;17.00;99.90
26947;DHT22;14501;52.282;10.560;2023-07-29T03:25:29;17.10;99.90
26947;DHT22;14501;52.282;10.560;2023-07-29T03:27:54;17.10;99.90
26947;DHT22;14501;52.282;10.560;2023-07-29T03:30:21;17.20;99.90
26947;DHT22;14501;52.282;10.560;2023-07-29T03:32:47;17.30;99.90
26947;DHT22;14501;52.282;10.560;2023-07-29T03:35:13;17.40;99.90
26947;DHT22;14501;52.282;10.560;2023-07-29T03:37:39;17.40;99.90
26947;DHT22;14501;52.282;10.560;2023-07-29T03:40:06;17.40;99.90
26947;DHT22;14501;52.282;10.560;2023-07-29T03:42:31;17.50;99.90
26947;DHT22;14501;52.282;10.560;2023-07-29T03:44:57;17.50;99.90
26947;DHT22;14501;52.282;10.560;2023-07-29T03:47:22;17.50;99.90
26947;DHT22;14501;52.282;10.560;2023-07-29T03:49:48;17.50;99.90
26947;DHT22;14501;52.282;10.560;2023-07-29T03:52:14;17.60;99.90
26947;DHT22;14501;52.282;10.560;2023-07-29T03:54:39;17.50;99.90
26947;DHT22;14501;52.282;10.560;2023-07-29T03:57:05;17.60;99.90
26947;DHT22;14501;52.282;10.560;2023-07-29T03:59:31;17.60;99.90
26947;DHT22;14501;52.282;10.560;2023-07-29T04:01:57;17.60;99.90
26947;DHT22;14501;52.282;10.560;2023-07-29T04:04:22;17.70;99.90
26947;DHT22;14501;52.282;10.560;2023-07-29T04:06:48;17.70;99.90
26947;DHT22;14501;52.282;10.560;2023-07-29T04:09:13;17.70;99.90
26947;DHT22;14501;52.282;10.560;2023-07-29T04:11:39;17.80;99.90
26947;DHT22;14501;52.282;10.560;2023-07-29T04:14:04;17.80;99.90
26947;DHT22;14501;52.282;10.560;2023-07-29T04:16:30;17.90;99.90
26947;DHT22;14501;52.282;10.560;2023-07-29T04:18:56;17.90;99.90
26947;DHT22;14501;52.282;10.560;2023-07-29T04:21:21;18.00;99.90
26947;DHT22;14501;52.282;10.560;2023-07-29T04:23:47;18.10;99.90
26947;DHT22;14501;52.282;10.560;2023-07-29T04:26:12;18.20;99.90
26947;DHT22;14501;52.282;10.560;2023-07-29T04:28:38;18.20;99.90
26947;DHT22;14501;52.282;10.560;2023-07-29T04:31:04;18.20;99.90
26947;DHT22;14501;52.282;10.560;2023-07-29T04:33:30;18.30;99.90
26947;DHT22;14501;52.282;10.560;2023-07-29T04:35:56;18.40;99.90
26947;DHT22;14501;52.282;10.560;2023-07-29T04:38:24;18.40;99.90
26947;DHT22;14501;52.282;10.560;2023-07-29T04:40:50;18.50;99.90
26947;DHT22;14501;52.282;10.560;2023-07-29T04:43:15;18.60;99.90
26947;DHT22;14501;52.282;10.560;2023-07-29T04:45:44;18.80;99.90
26947;DHT22;14501;52.282;10.560;2023-07-29T04:48:11;18.90;99.90
26947;DHT22;14501;52.282;10.560;2023-07-29T04:50:36;18.90;99.90
26947;DHT22;14501;52.282;10.560;2023-07-29T04:53:02;19.10;99.90
26947;DHT22;14501;52.282;10.560;2023-07-29T04:55:27;19.30;99.90
26947;DHT22;14501;52.282;10.560;2023-07-29T04:57:53;19.30;99.90
26947;DHT22;14501;52.282;10.560;2023-07-29T05:00:18;19.30;99.90
26947;DHT22;14501;52.282;10.560;2023-07-29T05:02:44;19.40;99.90
26947;DHT22;14501;52.282;10.560;2023-07-29T05:05:09;19.50;99.90
26947;DHT22;14501;52.282;10.560;2023-07-29T05:07:35;19.50;99.90
26947;DHT22;14501;52.282;10.560;2023-07-29T05:10:01;19.60;99.90
26947;DHT22;14501;52.282;10.560;2023-07-29T05:12:26;19.70;99.90
26947;DHT22;14501;52.282;10.560;2023-07-29T05:14:52;19.70;99.90
26947;DHT22;14501;52.282;10.560;2023-07-29T05:17:17;19.70;99.90
26947;DHT22;14501;52.282;10.560;2023-07-29T05:19:43;19.80;99.90
26947;DHT22;14501;52.282;10.560;2023-07-29T05:22:10;19.90;99.90
26947;DHT22;14501;52.282;10.560;2023-07-29T05:24:35;20.10;99.90
26947;DHT22;14501;52.282;10.560;2023-07-29T05:27:01;20.20;99.90
26947;DHT22;14501;52.282;10.560;2023-07-29T05:29:26;20.20;99.90
26947;DHT22;14501;52.282;10.560;2023-07-29T05:31:52;20.20;99.90
26947;DHT22;14501;52.282;10.560;2023-07-29T05:34:18;20.20;99.90
26947;DHT22;14501;52.282;10.560;2023-07-29T05:36:43;20.10;99.90
26947;DHT22;14501;52.282;10.560;2023-07-29T05:39:09;20.00;99.90
26947;DHT22;14501;52.282;10.560;2023-07-29T05:41:35;20.00;99.90
26947;DHT22;14501;52.282;10.560;2023-07-29T05:44:01;20.00;99.90
26947;DHT22;14501;52.282;10.560;2023-07-29T05:46:26;20.20;99.90
26947;DHT22;14501;52.282;10.560;2023-07-29T05:48:52;20.20;99.90
26947;DHT22;14501;52.282;10.560;2023-07-29T05:51:17;20.50;99.90
26947;DHT22;14501;52.282;10.560;2023-07-29T05:53:43;20.80;99.90
26947;DHT22;14501;52.282;10.560;2023-07-29T05:56:09;21.00;99.90
26947;DHT22;14501;52.282;10.560;2023-07-29T05:58:35;21.00;99.90
26947;DHT22;14501;52.282;10.560;2023-07-29T06:01:01;21.00;99.90
26947;DHT22;14501;52.282;10.560;2023-07-29T06:03:26;20.90;99.90
26947;DHT22;14501;52.282;10.560;2023-07-29T06:05:52;20.60;99.90
26947;DHT22;14501;52.282;10.560;2023-07-29T06:08:18;20.40;99.90
26947;DHT22;14501;52.282;10.560;2023-07-29T06:10:43;20.20;99.90
26947;DHT22;14501;52.282;10.560;2023-07-29T06:13:09;19.90;99.90
26947;DHT22;14501;52.282;10.560;2023-07-29T06:15:35;19.50;99.90
26947;DHT22;14501;52.282;10.560;2023-07-29T06:18:00;19.40;99.90
26947;DHT22;14501;52.282;10.560;2023-07-29T06:20:26;19.30;99.90
26947;DHT22;14501;52.282;10.560;2023-07-29T06:22:51;19.10;99.90
26947;DHT22;14501;52.282;10.560;2023-07-29T06:25:20;19.10;99.90
26947;DHT22;14501;52.282;10.560;2023-07-29T06:27:46;19.00;99.90
26947;DHT22;14501;52.282;10.560;2023-07-29T06:30:12;19.00;99.90
26947;DHT22;14501;52.282;10.560;2023-07-29T06:32:37;18.90;99.90
26947;DHT22;14501;52.282;10.560;2023-07-29T06:35:03;18.90;99.90
26947;DHT22;14501;52.282;10.560;2023-07-29T06:37:29;18.80;99.90
26947;DHT22;14501;52.282;10.560;2023-07-29T06:39:54;18.80;99.90
26947;DHT22;14501;52.282;10.560;2023-07-29T06:44:46;18.80;99.90
26947;DHT22;14501;52.282;10.560;2023-07-29T06:47:12;18.70;99.90
26947;DHT22;14501;52.282;10.560;2023-07-29T06:52:04;18.70;99.90
26947;DHT22;14501;52.282;10.560;2023-07-29T06:54:29;18.70;99.90
26947;DHT22;14501;52.282;10.560;2023-07-29T06:56:55;18.70;99.90
26947;DHT22;14501;52.282;10.560;2023-07-29T06:59:20;18.70;99.90
26947;DHT22;14501;52.282;10.560;2023-07-29T07:01:46;18.60;99.90
26947;DHT22;14501;52.282;10.560;2023-07-29T07:04:12;18.60;99.90
26947;DHT22;14501;52.282;10.560;2023-07-29T07:06:37;18.60;99.90
26947;DHT22;14501;52.282;10.560;2023-07-29T07:09:03;18.60;99.90
26947;DHT22;14501;52.282;10.560;2023-07-29T07:11:29;18.60;99.90
26947;DHT22;14501;52.282;10.560;2023-07-29T07:13:54;18.60;99.90
26947;DHT22;14501;52.282;10.560;2023-07-29T07:16:20;18.50;99.90
26947;DHT22;14501;52.282;10.560;2023-07-29T07:18:45;18.50;99.90
26947;DHT22;14501;52.282;10.560;2023-07-29T07:21:11;18.40;99.90
26947;DHT22;14501;52.282;10.560;2023-07-29T07:23:38;18.50;99.90
26947;DHT22;14501;52.282;10.560;2023-07-29T07:26:03;18.60;99.90
26947;DHT22;14501;52.282;10.560;2023-07-29T07:28:29;18.60;99.90
26947;DHT22;14501;52.282;10.560;2023-07-29T07:30:54;18.50;99.90
26947;DHT22;14501;52.282;10.560;2023-07-29T07:33:21;18.60;99.90
26947;DHT22;14501;52.282;10.560;2023-07-29T07:35:47;18.80;99.90
26947;DHT22;14501;52.282;10.560;2023-07-29T07:38:12;18.80;99.90
26947;DHT22;14501;52.282;10.560;2023-07-29T07:40:38;18.80;99.90
26947;DHT22;14501;52.282;10.560;2023-07-29T07:43:03;18.80;99.90
26947;DHT22;14501;52.282;10.560;2023-07-29T07:45:29;18.80;99.90
26947;DHT22;14501;52.282;10.560;2023-07-29T07:47:56;18.70;99.90
26947;DHT22;14501;52.282;10.560;2023-07-29T07:50:22;18.90;99.90
26947;DHT22;14501;52.282;10.560;2023-07-29T07:52:49;19.10;99.90
26947;DHT22;14501;52.282;10.560;2023-07-29T07:55:15;19.20;99.90
26947;DHT22;14501;52.282;10.560;2023-07-29T07:57:40;19.20;99.90
26947;DHT22;14501;52.282;10.560;2023-07-29T08:00:06;19.20;99.90
26947;DHT22;14501;52.282;10.560;2023-07-29T08:02:32;19.10;99.90
26947;DHT22;14501;52.282;10.560;2023-07-29T08:04:57;19.20;99.90
26947;DHT22;14501;52.282;10.560;2023-07-29T08:07:23;19.30;99.90
26947;DHT22;14501;52.282;10.560;2023-07-29T08:09:49;19.30;99.90
26947;DHT22;14501;52.282;10.560;2023-07-29T08:12:14;19.30;99.90
26947;DHT22;14501;52.282;10.560;2023-07-29T08:14:40;19.40;99.90
26947;DHT22;14501;52.282;10.560;2023-07-29T08:17:06;19.60;99.90
26947;DHT22;14501;52.282;10.560;2023-07-29T08:19:31;20.00;99.90
26947;DHT22;14501;52.282;10.560;2023-07-29T08:21:57;20.50;99.90
26947;DHT22;14501;52.282;10.560;2023-07-29T08:24:23;21.10;99.90
26947;DHT22;14501;52.282;10.560;2023-07-29T08:26:48;22.00;99.90
26947;DHT22;14501;52.282;10.560;2023-07-29T08:29:14;22.30;99.90
26947;DHT22;14501;52.282;10.560;2023-07-29T08:31:40;22.90;99.90
26947;DHT22;14501;52.282;10.560;2023-07-29T08:34:05;23.40;99.90
26947;DHT22;14501;52.282;10.560;2023-07-29T08:36:31;23.80;99.90
26947;DHT22;14501;52.282;10.560;2023-07-29T08:38:56;23.80;99.90
26947;DHT22;14501;52.282;10.560;2023-07-29T08:41:27;24.20;99.90
26947;DHT22;14501;52.282;10.560;2023-07-29T08:44:09;24.70;99.90
26947;DHT22;14501;52.282;10.560;2023-07-29T08:46:38;25.70;99.90
26947;DHT22;14501;52.282;10.560;2023-07-29T08:49:04;25.70;99.90
26947;DHT22;14501;52.282;10.560;2023-07-29T08:51:31;25.60;99.90
26947;DHT22;14501;52.282;10.560;2023-07-29T08:53:58;25.50;99.90
26947;DHT22;14501;52.282;10.560;2023-07-29T08:56:24;25.10;99.90
26947;DHT22;14501;52.282;10.560;2023-07-29T08:58:51;25.00;99.90
26947;DHT22;14501;52.282;10.560;2023-07-29T09:01:17;24.60;99.90
26947;DHT22;14501;52.282;10.560;2023-07-29T09:03:43;24.30;99.90
26947;DHT22;14501;52.282;10.560;2023-07-29T09:06:09;23.90;99.90
26947;DHT22;14501;52.282;10.560;2023-07-29T09:08:34;23.70;99.90
26947;DHT22;14501;52.282;10.560;2023-07-29T09:11:01;23.40;99.90
26947;DHT22;14501;52.282;10.560;2023-07-29T09:13:27;23.30;99.90
26947;DHT22;14501;52.282;10.560;2023-07-29T09:15:57;23.30;99.90
26947;DHT22;14501;52.282;10.560;2023-07-29T09:18:23;23.30;99.90
26947;DHT22;14501;52.282;10.560;2023-07-29T09:20:51;23.40;99.90
26947;DHT22;14501;52.282;10.560;2023-07-29T09:23:16;23.30;99.90
26947;DHT22;14501;52.282;10.560;2023-07-29T09:25:42;23.10;99.90
26947;DHT22;14501;52.282;10.560;2023-07-29T09:28:10;23.00;99.90
26947;DHT22;14501;52.282;10.560;2023-07-29T09:30:37;22.80;99.90
26947;DHT22;14501;52.282;10.560;2023-07-29T09:33:03;22.60;99.90
26947;DHT22;14501;52.282;10.560;2023-07-29T09:35:31;22.20;99.90
26947;DHT22;14501;52.282;10.560;2023-07-29T09:37:57;22.30;99.90
26947;DHT22;14501;52.282;10.560;2023-07-29T09:40:23;22.50;99.90
26947;DHT22;14501;52.282;10.560;2023-07-29T09:42:52;22.80;99.90
26947;DHT22;14501;52.282;10.560;2023-07-29T09:45:22;23.40;99.90
26947;DHT22;14501;52.282;10.560;2023-07-29T09:47:48;23.70;99.90
26947;DHT22;14501;52.282;10.560;2023-07-29T09:50:15;24.00;99.90
26947;DHT22;14501;52.282;10.560;2023-07-29T09:52:41;24.00;99.90
26947;DHT22;14501;52.282;10.560;2023-07-29T09:55:07;24.00;99.90
26947;DHT22;14501;52.282;10.560;2023-07-29T09:57:33;23.90;99.90
26947;DHT22;14501;52.282;10.560;2023-07-29T09:59:59;23.60;99.90
26947;DHT22;14501;52.282;10.560;2023-07-29T10:02:26;23.50;99.90
26947;DHT22;14501;52.282;10.560;2023-07-29T10:04:55;23.40;99.90
26947;DHT22;14501;52.282;10.560;2023-07-29T10:07:22;23.10;99.90
26947;DHT22;14501;52.282;10.560;2023-07-29T10:09:52;23.10;99.90
26947;DHT22;14501;52.282;10.560;2023-07-29T10:12:18;22.80;99.90
26947;DHT22;14501;52.282;10.560;2023-07-29T10:14:46;23.10;99.90
26947;DHT22;14501;52.282;10.560;2023-07-29T10:19:39;24.70;99.90
26947;DHT22;14501;52.282;10.560;2023-07-29T10:22:06;25.60;99.90
26947;DHT22;14501;52.282;10.560;2023-07-29T10:24:33;26.70;99.90
26947;DHT22;14501;52.282;10.560;2023-07-29T10:27:00;26.70;99.90
26947;DHT22;14501;52.282;10.560;2023-07-29T10:29:38;27.30;99.90
26947;DHT22;14501;52.282;10.560;2023-07-29T10:32:04;28.80;99.90
26947;DHT22;14501;52.282;10.560;2023-07-29T10:34:32;30.20;99.90
26947;DHT22;14501;52.282;10.560;2023-07-29T10:41:55;29.60;99.90
26947;DHT22;14501;52.282;10.560;2023-07-29T10:47:27;28.40;99.90
26947;DHT22;14501;52.282;10.560;2023-07-29T10:49:55;28.00;99.90
26947;DHT22;14501;52.282;10.560;2023-07-29T10:54:55;26.80;99.90
26947;DHT22;14501;52.282;10.560;2023-07-29T10:57:35;26.50;99.90
26947;DHT22;14501;52.282;10.560;2023-07-29T11:00:02;26.40;99.90
26947;DHT22;14501;52.282;10.560;2023-07-29T11:02:31;26.60;99.90
26947;DHT22;14501;52.282;10.560;2023-07-29T11:04:57;27.20;99.90
26947;DHT22;14501;52.282;10.560;2023-07-29T11:07:24;27.40;99.90
26947;DHT22;14501;52.282;10.560;2023-07-29T11:09:57;27.70;99.90
26947;DHT22;14501;52.282;10.560;2023-07-29T11:15:17;28.50;99.90
26947;DHT22;14501;52.282;10.560;2023-07-29T11:17:54;28.80;99.90
26947;DHT22;14501;52.282;10.560;2023-07-29T11:20:22;28.30;99.90
26947;DHT22;14501;52.282;10.560;2023-07-29T11:22:48;27.80;99.90
26947;DHT22;14501;52.282;10.560;2023-07-29T11:25:16;27.10;99.90
26947;DHT22;14501;52.282;10.560;2023-07-29T11:27:42;27.10;99.90
26947;DHT22;14501;52.282;10.560;2023-07-29T11:30:10;27.00;99.90
26947;DHT22;14501;52.282;10.560;2023-07-29T11:32:36;26.80;99.90
26947;DHT22;14501;52.282;10.560;2023-07-29T11:35:04;26.60;99.90
26947;DHT22;14501;52.282;10.560;2023-07-29T11:37:30;26.40;99.90
26947;DHT22;14501;52.282;10.560;2023-07-29T11:39:55;26.20;99.90
26947;DHT22;14501;52.282;10.560;2023-07-29T11:42:21;25.90;99.90
26947;DHT22;14501;52.282;10.560;2023-07-29T11:44:46;25.40;99.90
26947;DHT22;14501;52.282;10.560;2023-07-29T11:47:12;25.30;99.90
26947;DHT22;14501;52.282;10.560;2023-07-29T11:49:39;25.30;99.90
26947;DHT22;14501;52.282;10.560;2023-07-29T11:52:10;25.50;99.90
26947;DHT22;14501;52.282;10.560;2023-07-29T11:54:39;25.90;99.90
26947;DHT22;14501;52.282;10.560;2023-07-29T11:57:14;26.40;99.90
26947;DHT22;14501;52.282;10.560;2023-07-29T11:59:41;26.90;99.90
26947;DHT22;14501;52.282;10.560;2023-07-29T12:02:13;27.10;99.90
26947;DHT22;14501;52.282;10.560;2023-07-29T12:04:40;27.10;99.90
26947;DHT22;14501;52.282;10.560;2023-07-29T12:07:06;27.10;99.90
26947;DHT22;14501;52.282;10.560;2023-07-29T12:09:36;27.10;99.90
26947;DHT22;14501;52.282;10.560;2023-07-29T12:12:03;27.20;99.90
26947;DHT22;14501;52.282;10.560;2023-07-29T12:14:29;27.20;99.90
26947;DHT22;14501;52.282;10.560;2023-07-29T12:16:55;27.30;99.90
26947;DHT22;14501;52.282;10.560;2023-07-29T12:19:20;27.20;99.90
26947;DHT22;14501;52.282;10.560;2023-07-29T12:21:48;26.70;99.90
26947;DHT22;14501;52.282;10.560;2023-07-29T12:24:14;26.40;99.90
26947;DHT22;14501;52.282;10.560;2023-07-29T12:26:41;25.70;99.90
26947;DHT22;14501;52.282;10.560;2023-07-29T12:29:15;25.60;99.90
26947;DHT22;14501;52.282;10.560;2023-07-29T12:31:41;25.70;99.90
26947;DHT22;14501;52.282;10.560;2023-07-29T12:34:06;26.00;99.90
26947;DHT22;14501;52.282;10.560;2023-07-29T12:36:49;26.90;99.90
26947;DHT22;14501;52.282;10.560;2023-07-29T12:39:23;27.10;99.90
26947;DHT22;14501;52.282;10.560;2023-07-29T12:41:51;27.50;99.90
26947;DHT22;14501;52.282;10.560;2023-07-29T12:44:17;27.60;99.90
26947;DHT22;14501;52.282;10.560;2023-07-29T12:46:43;27.40;99.90
26947;DHT22;14501;52.282;10.560;2023-07-29T12:49:09;27.50;99.90
26947;DHT22;14501;52.282;10.560;2023-07-29T12:51:35;27.80;99.90
26947;DHT22;14501;52.282;10.560;2023-07-29T12:54:01;27.80;99.90
26947;DHT22;14501;52.282;10.560;2023-07-29T12:56:28;27.70;99.90
26947;DHT22;14501;52.282;10.560;2023-07-29T12:58:54;27.80;99.90
26947;DHT22;14501;52.282;10.560;2023-07-29T13:01:19;27.90;99.90
26947;DHT22;14501;52.282;10.560;2023-07-29T13:03:45;28.00;99.90
26947;DHT22;14501;52.282;10.560;2023-07-29T13:06:11;28.20;99.90
26947;DHT22;14501;52.282;10.560;2023-07-29T13:08:37;28.10;99.90
26947;DHT22;14501;52.282;10.560;2023-07-29T13:11:03;27.80;99.90
26947;DHT22;14501;52.282;10.560;2023-07-29T13:13:29;27.60;99.90
26947;DHT22;14501;52.282;10.560;2023-07-29T13:15:55;27.50;99.90
26947;DHT22;14501;52.282;10.560;2023-07-29T13:18:21;27.50;99.90
26947;DHT22;14501;52.282;10.560;2023-07-29T13:20:47;27.60;99.90
26947;DHT22;14501;52.282;10.560;2023-07-29T13:23:13;27.90;99.90
26947;DHT22;14501;52.282;10.560;2023-07-29T13:25:38;28.00;99.90
26947;DHT22;14501;52.282;10.560;2023-07-29T13:28:04;28.00;99.90
26947;DHT22;14501;52.282;10.560;2023-07-29T13:30:31;28.00;99.90
26947;DHT22;14501;52.282;10.560;2023-07-29T13:32:56;27.90;99.90
26947;DHT22;14501;52.282;10.560;2023-07-29T13:35:22;27.10;99.90
26947;DHT22;14501;52.282;10.560;2023-07-29T13:37:47;27.20;99.90
26947;DHT22;14501;52.282;10.560;2023-07-29T13:40:13;26.80;99.90
26947;DHT22;14501;52.282;10.560;2023-07-29T13:42:39;26.80;99.90
26947;DHT22;14501;52.282;10.560;2023-07-29T13:45:04;26.90;99.90
26947;DHT22;14501;52.282;10.560;2023-07-29T13:47:30;26.90;99.90
26947;DHT22;14501;52.282;10.560;2023-07-29T13:49:56;26.90;99.90
26947;DHT22;14501;52.282;10.560;2023-07-29T13:52:21;26.50;99.90
26947;DHT22;14501;52.282;10.560;2023-07-29T13:54:47;26.30;99.90
26947;DHT22;14501;52.282;10.560;2023-07-29T13:57:12;26.30;99.90
26947;DHT22;14501;52.282;10.560;2023-07-29T13:59:38;26.30;99.90
26947;DHT22;14501;52.282;10.560;2023-07-29T14:02:05;26.60;99.90
26947;DHT22;14501;52.282;10.560;2023-07-29T14:04:31;26.80;99.90
26947;DHT22;14501;52.282;10.560;2023-07-29T14:09:23;26.80;99.90
26947;DHT22;14501;52.282;10.560;2023-07-29T14:11:48;26.80;99.90
26947;DHT22;14501;52.282;10.560;2023-07-29T14:14:15;27.10;99.90
26947;DHT22;14501;52.282;10.560;2023-07-29T14:16:40;27.20;99.90
26947;DHT22;14501;52.282;10.560;2023-07-29T14:19:06;27.20;99.90
26947;DHT22;14501;52.282;10.560;2023-07-29T14:21:31;27.20;99.90
26947;DHT22;14501;52.282;10.560;2023-07-29T14:23:57;27.20;99.90
26947;DHT22;14501;52.282;10.560;2023-07-29T14:26:23;27.10;99.90
26947;DHT22;14501;52.282;10.560;2023-07-29T14:28:48;26.90;99.90
26947;DHT22;14501;52.282;10.560;2023-07-29T14:31:15;26.70;99.90
26947;DHT22;14501;52.282;10.560;2023-07-29T14:36:08;26.50;99.90
26947;DHT22;14501;52.282;10.560;2023-07-29T14:38:35;26.50;99.90
26947;DHT22;14501;52.282;10.560;2023-07-29T14:41:00;26.80;99.90
26947;DHT22;14501;52.282;10.560;2023-07-29T14:43:26;26.90;99.90
26947;DHT22;14501;52.282;10.560;2023-07-29T14:45:52;26.70;99.90
26947;DHT22;14501;52.282;10.560;2023-07-29T14:48:17;26.70;99.90
26947;DHT22;14501;52.282;10.560;2023-07-29T14:50:43;26.50;99.90
26947;DHT22;14501;52.282;10.560;2023-07-29T14:53:09;26.40;99.90
26947;DHT22;14501;52.282;10.560;2023-07-29T14:55:36;26.40;99.90
26947;DHT22;14501;52.282;10.560;2023-07-29T14:58:03;26.30;99.90
26947;DHT22;14501;52.282;10.560;2023-07-29T15:00:28;26.40;99.90
26947;DHT22;14501;52.282;10.560;2023-07-29T15:02:54;26.40;99.90
26947;DHT22;14501;52.282;10.560;2023-07-29T15:05:20;26.40;99.90
26947;DHT22;14501;52.282;10.560;2023-07-29T15:07:45;26.30;99.90
26947;DHT22;14501;52.282;10.560;2023-07-29T15:10:14;26.30;99.90
26947;DHT22;14501;52.282;10.560;2023-07-29T15:12:41;26.20;99.90
26947;DHT22;14501;52.282;10.560;2023-07-29T15:15:07;26.20;99.90
26947;DHT22;14501;52.282;10.560;2023-07-29T15:17:33;26.10;99.90
26947;DHT22;14501;52.282;10.560;2023-07-29T15:19:59;26.20;99.90
26947;DHT22;14501;52.282;10.560;2023-07-29T15:22:24;26.10;99.90
26947;DHT22;14501;52.282;10.560;2023-07-29T15:24:50;26.10;99.90
26947;DHT22;14501;52.282;10.560;2023-07-29T15:27:15;26.00;99.90
26947;DHT22;14501;52.282;10.560;2023-07-29T15:29:41;25.90;99.90
26947;DHT22;14501;52.282;10.560;2023-07-29T15:32:07;25.80;99.90
26947;DHT22;14501;52.282;10.560;2023-07-29T15:34:33;25.80;99.90
26947;DHT22;14501;52.282;10.560;2023-07-29T15:36:58;25.90;99.90
26947;DHT22;14501;52.282;10.560;2023-07-29T15:39:24;25.90;99.90
26947;DHT22;14501;52.282;10.560;2023-07-29T15:41:50;25.90;99.90
26947;DHT22;14501;52.282;10.560;2023-07-29T15:44:16;25.80;99.90